Time;durP1;ratioP1;P1;durP2;ratioP2;P2;SDS_P1;SDS_P2;PMS_P1;PMS_P2;Temp;Humidity;BMP_temperature;BMP_pressure;BME280_temperature;BME280_humidity;BME280_pressure;Samples;Min_cycle;Max_cycle;Signal;HPM_P1;HPM_P2
2021/03/18 00:01:17;;;;;;;1.13;1.02;;;17.80;52.30;;;;;;4864428;29;20339;-69
2021/03/18 00:03:43;;;;;;;1.85;0.88;;;17.80;52.30;;;;;;4895738;29;20371;-70
2021/03/18 00:06:09;;;;;;;1.85;0.75;;;17.80;52.30;;;;;;4896158;29;20637;-68
2021/03/18 00:08:35;;;;;;;0.70;0.70;;;17.80;52.20;;;;;;4895338;29;20184;-70
2021/03/18 00:11:03;;;;;;;1.50;0.85;;;17.80;52.30;;;;;;4881835;29;20396;-69
2021/03/18 00:13:29;;;;;;;1.25;0.75;;;17.80;52.20;;;;;;4899466;29;20633;-70
2021/03/18 00:15:56;;;;;;;1.27;0.93;;;17.80;52.20;;;;;;4898912;29;20173;-70
2021/03/18 00:18:22;;;;;;;1.40;0.73;;;17.80;52.10;;;;;;4899305;29;20181;-69
2021/03/18 00:20:48;;;;;;;1.33;0.82;;;17.80;52.10;;;;;;4900689;29;20201;-68
2021/03/18 00:23:13;;;;;;;1.70;0.90;;;17.70;52.10;;;;;;4898952;29;20181;-69
2021/03/18 00:25:39;;;;;;;1.23;0.80;;;17.70;52.10;;;;;;4883496;29;20228;-68
2021/03/18 00:28:05;;;;;;;1.67;0.85;;;17.70;52.10;;;;;;4900604;29;20228;-68
2021/03/18 00:30:30;;;;;;;2.17;0.90;;;17.70;52.00;;;;;;4899443;29;20304;-68
2021/03/18 00:32:56;;;;;;;1.05;0.98;;;17.70;52.00;;;;;;4899352;29;20169;-70
2021/03/18 00:35:22;;;;;;;0.47;0.47;;;17.70;52.00;;;;;;4898863;29;20188;-71
2021/03/18 00:37:48;;;;;;;0.90;0.70;;;17.70;52.00;;;;;;4898666;29;20251;-69
2021/03/18 00:40:28;;;;;;;1.17;0.70;;;17.60;51.90;;;;;;4900398;29;20275;-68
2021/03/18 00:42:56;;;;;;;1.98;0.77;;;17.60;52.00;;;;;;4883460;29;20245;-69
2021/03/18 00:45:22;;;;;;;1.52;0.80;;;17.60;51.90;;;;;;4866950;29;20712;-69
2021/03/18 00:47:48;;;;;;;1.20;0.85;;;17.60;52.50;;;;;;4900122;29;20172;-68
2021/03/18 00:50:38;;;;;;;0.80;0.73;;;17.60;51.90;;;;;;4898686;29;20667;-68
2021/03/18 00:53:04;;;;;;;0.95;0.85;;;17.60;51.90;;;;;;4899814;29;20181;-69
2021/03/18 00:55:30;;;;;;;1.85;1.00;;;17.60;51.90;;;;;;4898623;29;20173;-68
2021/03/18 00:57:56;;;;;;;1.80;1.08;;;17.60;51.80;;;;;;4898199;29;20252;-69
2021/03/18 01:00:34;;;;;;;1.40;0.95;;;17.50;51.80;;;;;;4867385;29;20180;-70
2021/03/18 01:03:00;;;;;;;0.70;0.70;;;17.60;51.90;;;;;;4883387;29;20184;-71
2021/03/18 01:05:31;;;;;;;0.70;0.57;;;17.50;51.80;;;;;;4898972;29;20179;-69
2021/03/18 01:07:57;;;;;;;1.80;0.77;;;17.50;51.70;;;;;;4899793;29;20181;-69
2021/03/18 01:10:23;;;;;;;0.80;0.80;;;17.50;51.70;;;;;;4898322;29;20208;-68
2021/03/18 01:12:49;;;;;;;2.20;1.13;;;17.50;51.70;;;;;;4897979;29;20184;-69
2021/03/18 01:15:15;;;;;;;2.60;1.00;;;17.50;51.80;;;;;;4882860;29;20186;-68
2021/03/18 01:17:40;;;;;;;1.92;0.90;;;17.50;51.70;;;;;;4898385;29;20683;-68
2021/03/18 01:20:09;;;;;;;1.90;1.00;;;17.50;51.70;;;;;;4882108;29;20168;-68
2021/03/18 01:22:34;;;;;;;2.00;0.90;;;17.40;51.70;;;;;;4881896;29;20180;-69
2021/03/18 01:25:00;;;;;;;1.00;0.90;;;17.40;51.60;;;;;;4899328;29;20229;-68
2021/03/18 01:27:25;;;;;;;1.08;0.88;;;17.40;51.60;;;;;;4898696;29;20184;-69
2021/03/18 01:29:51;;;;;;;0.88;0.80;;;17.40;51.60;;;;;;4899367;29;20264;-69
2021/03/18 01:32:17;;;;;;;1.00;0.90;;;17.40;51.70;;;;;;4899346;29;20216;-70
2021/03/18 01:34:43;;;;;;;1.45;0.80;;;17.40;51.60;;;;;;4897330;29;20176;-70
2021/03/18 01:37:09;;;;;;;1.13;0.75;;;17.40;51.60;;;;;;4882468;29;20181;-70
2021/03/18 01:39:34;;;;;;;1.10;0.88;;;17.40;51.60;;;;;;4898357;29;20252;-68
2021/03/18 01:42:00;;;;;;;1.20;0.70;;;17.30;51.60;;;;;;4899159;29;20811;-69
2021/03/18 01:44:26;;;;;;;2.97;0.88;;;17.30;51.60;;;;;;4881968;29;20201;-68
2021/03/18 01:46:51;;;;;;;1.20;0.77;;;17.30;51.60;;;;;;4881811;29;20177;-69
2021/03/18 01:49:18;;;;;;;1.67;1.10;;;17.30;51.50;;;;;;4882408;29;20180;-69
2021/03/18 01:51:43;;;;;;;1.10;1.00;;;17.30;51.50;;;;;;4898709;29;20647;-68
2021/03/18 01:54:10;;;;;;;1.08;0.80;;;17.30;51.50;;;;;;4897002;29;20225;-69
2021/03/18 01:56:35;;;;;;;1.00;0.90;;;17.30;51.50;;;;;;4897579;29;20651;-69
2021/03/18 01:59:01;;;;;;;0.88;0.80;;;17.30;51.50;;;;;;4898837;29;20168;-70
2021/03/18 02:01:26;;;;;;;2.78;0.82;;;17.20;51.40;;;;;;4898075;29;20645;-71
2021/03/18 02:03:52;;;;;;;1.40;0.80;;;17.20;51.40;;;;;;4898697;29;20224;-71
2021/03/18 02:06:18;;;;;;;1.45;0.77;;;17.20;51.40;;;;;;4897710;29;20192;-69
2021/03/18 02:08:43;;;;;;;1.63;1.13;;;17.20;51.40;;;;;;4897170;29;20177;-69
2021/03/18 02:11:09;;;;;;;1.58;0.73;;;17.20;51.40;;;;;;4881754;29;20216;-69
2021/03/18 02:13:35;;;;;;;0.93;0.75;;;17.20;51.40;;;;;;4898205;29;20181;-70
2021/03/18 02:16:05;;;;;;;1.55;0.90;;;17.20;51.40;;;;;;4896798;29;20641;-69
2021/03/18 02:18:48;;;;;;;1.25;0.80;;;17.20;51.40;;;;;;4897211;29;20545;-69
2021/03/18 02:21:38;;;;;;;1.10;0.77;;;17.20;51.40;;;;;;4897514;29;20231;-69
2021/03/18 02:24:12;;;;;;;1.75;0.82;;;17.20;51.40;;;;;;4897799;29;20176;-68
2021/03/18 02:26:38;;;;;;;1.30;1.00;;;17.20;51.40;;;;;;4897115;29;20180;-68
2021/03/18 02:29:16;;;;;;;2.38;1.05;;;17.10;51.30;;;;;;4897800;29;20181;-68
2021/03/18 02:32:01;;;;;;;1.25;0.73;;;17.10;51.30;;;;;;4896986;29;20208;-69
2021/03/18 02:34:26;;;;;;;1.40;0.82;;;17.10;51.40;;;;;;4897078;29;20169;-70
2021/03/18 02:36:54;;;;;;;0.75;0.75;;;17.10;51.30;;;;;;4897747;29;20534;-69
2021/03/18 02:39:28;;;;;;;1.33;1.00;;;17.10;51.30;;;;;;4881289;29;20180;-68
2021/03/18 02:41:56;;;;;;;2.00;1.08;;;17.10;51.30;;;;;;4881237;29;20625;-68
2021/03/18 02:44:23;;;;;;;1.52;0.80;;;17.10;51.30;;;;;;4880463;29;20313;-69
2021/03/18 02:46:52;;;;;;;1.67;0.90;;;17.10;51.30;;;;;;4881342;29;20176;-68
2021/03/18 02:49:18;;;;;;;1.02;0.90;;;17.10;51.30;;;;;;4881213;29;20637;-69
2021/03/18 02:51:44;;;;;;;0.73;0.70;;;17.00;51.20;;;;;;4880621;29;20220;-69
2021/03/18 02:54:11;;;;;;;0.98;0.75;;;17.00;51.20;;;;;;4881204;29;20228;-69
2021/03/18 02:56:42;;;;;;;1.27;0.90;;;17.00;51.20;;;;;;4896508;29;20172;-70
2021/03/18 02:59:09;;;;;;;1.63;0.80;;;17.00;51.20;;;;;;4896164;29;20179;-69
2021/03/18 03:01:34;;;;;;;0.95;0.77;;;17.00;51.20;;;;;;4896505;29;20232;-70
2021/03/18 03:04:00;;;;;;;2.15;1.02;;;17.00;51.20;;;;;;4880365;29;20571;-72
2021/03/18 03:06:26;;;;;;;1.48;1.10;;;17.00;51.10;;;;;;4865355;29;20179;-69
2021/03/18 03:08:52;;;;;;;1.25;0.88;;;17.00;51.10;;;;;;4880839;29;20183;-69
2021/03/18 03:11:20;;;;;;;1.17;0.80;;;17.00;51.10;;;;;;4895924;29;20212;-69
2021/03/18 03:13:45;;;;;;;2.22;1.00;;;16.90;51.80;;;;;;4896614;29;20197;-69
2021/03/18 03:16:13;;;;;;;1.05;0.70;;;16.90;51.10;;;;;;4880753;29;20180;-68
2021/03/18 03:18:39;;;;;;;1.15;1.00;;;17.00;51.20;;;;;;4879961;29;20173;-69
2021/03/18 03:21:05;;;;;;;0.80;0.80;;;16.90;51.10;;;;;;4896340;29;20716;-69
2021/03/18 03:23:30;;;;;;;1.10;0.65;;;16.90;51.10;;;;;;4880646;29;20188;-68
2021/03/18 03:25:57;;;;;;;1.10;0.90;;;16.90;51.10;;;;;;4880265;29;20712;-68
2021/03/18 03:28:22;;;;;;;1.08;0.80;;;16.90;51.10;;;;;;4880492;29;20552;-68
2021/03/18 03:30:48;;;;;;;1.15;0.80;;;16.90;51.10;;;;;;4880765;29;20211;-69
2021/03/18 03:33:14;;;;;;;1.40;0.75;;;16.90;51.10;;;;;;4880209;29;20172;-70
2021/03/18 03:35:39;;;;;;;1.05;0.93;;;16.90;51.10;;;;;;4897087;29;20191;-68
2021/03/18 03:38:05;;;;;;;1.65;1.00;;;16.80;51.10;;;;;;4896169;29;20655;-68
2021/03/18 03:40:31;;;;;;;1.45;1.08;;;16.90;51.10;;;;;;4896575;29;20637;-68
2021/03/18 03:42:56;;;;;;;1.90;0.80;;;16.80;51.10;;;;;;4880577;29;20184;-68
2021/03/18 03:45:22;;;;;;;0.88;0.80;;;16.80;51.10;;;;;;4897633;29;20169;-68
2021/03/18 03:47:48;;;;;;;1.75;0.70;;;16.80;51.10;;;;;;4899499;29;20208;-69
2021/03/18 03:50:18;;;;;;;2.05;0.82;;;16.80;51.10;;;;;;4884394;29;20173;-68
2021/03/18 03:52:50;;;;;;;0.75;0.75;;;16.80;51.10;;;;;;4884457;29;20184;-68
2021/03/18 03:55:36;;;;;;;2.47;0.93;;;16.80;51.10;;;;;;4883516;29;20216;-69
2021/03/18 03:58:15;;;;;;;1.52;1.00;;;16.80;51.10;;;;;;4899982;29;20179;-69
2021/03/18 04:00:40;;;;;;;0.80;0.80;;;16.80;51.00;;;;;;4900224;29;20251;-70
2021/03/18 04:03:07;;;;;;;1.08;0.93;;;16.80;51.10;;;;;;4868688;29;20320;-72
2021/03/18 04:05:32;;;;;;;1.77;0.82;;;16.80;51.10;;;;;;4883730;29;20630;-70
2021/03/18 04:08:00;;;;;;;2.35;0.90;;;16.80;51.10;;;;;;4883691;29;20181;-69
2021/03/18 04:10:28;;;;;;;1.48;0.95;;;16.80;51.10;;;;;;4899526;29;20217;-69
2021/03/18 04:12:53;;;;;;;1.02;0.80;;;16.70;51.00;;;;;;4899727;29;20217;-69
2021/03/18 04:15:19;;;;;;;1.65;0.82;;;16.70;51.10;;;;;;4883107;29;20259;-69
2021/03/18 04:17:48;;;;;;;1.23;0.80;;;16.70;51.10;;;;;;4884264;29;20259;-68
2021/03/18 04:20:14;;;;;;;0.98;0.70;;;16.70;51.00;;;;;;4883914;29;20264;-68
2021/03/18 04:22:40;;;;;;;1.70;0.77;;;16.70;51.00;;;;;;4883028;29;20562;-69
2021/03/18 04:25:07;;;;;;;1.50;0.90;;;16.70;51.00;;;;;;4883655;29;20228;-68
2021/03/18 04:27:32;;;;;;;1.58;1.00;;;16.70;51.00;;;;;;4883483;29;20704;-68
2021/03/18 04:29:58;;;;;;;1.52;0.80;;;16.70;51.00;;;;;;4898715;29;20188;-68
2021/03/18 04:32:24;;;;;;;1.08;0.90;;;16.70;51.00;;;;;;4883610;29;20212;-70
2021/03/18 04:34:50;;;;;;;1.05;0.93;;;16.60;51.00;;;;;;4868070;29;20232;-69
2021/03/18 04:37:16;;;;;;;1.70;0.75;;;16.60;51.00;;;;;;4883171;29;20176;-69
2021/03/18 04:39:41;;;;;;;1.73;0.93;;;16.60;51.00;;;;;;4883294;29;20536;-68
2021/03/18 04:42:07;;;;;;;1.42;0.77;;;16.60;51.00;;;;;;4899102;29;20574;-69
2021/03/18 04:44:33;;;;;;;0.80;0.70;;;16.60;51.10;;;;;;4882467;29;20188;-69
2021/03/18 04:47:00;;;;;;;0.65;0.65;;;16.60;51.00;;;;;;4883515;29;20205;-68
2021/03/18 04:49:25;;;;;;;0.70;0.55;;;16.60;51.00;;;;;;4882651;29;20542;-68
2021/03/18 04:51:51;;;;;;;0.70;0.70;;;16.60;51.00;;;;;;4883392;29;20204;-68
2021/03/18 04:54:16;;;;;;;1.95;0.70;;;16.60;51.00;;;;;;4898708;29;20232;-69
2021/03/18 04:56:44;;;;;;;1.90;1.10;;;16.60;51.10;;;;;;4897414;29;20492;-69
2021/03/18 04:59:09;;;;;;;1.30;0.70;;;16.60;51.00;;;;;;4882700;29;20220;-70
2021/03/18 05:01:35;;;;;;;1.30;0.70;;;16.60;51.00;;;;;;4882777;29;20185;-69
2021/03/18 05:04:02;;;;;;;0.93;0.60;;;16.60;51.00;;;;;;4882365;29;20177;-68
2021/03/18 05:06:27;;;;;;;1.40;1.00;;;16.50;51.00;;;;;;4883249;29;20267;-69
2021/03/18 05:08:53;;;;;;;1.45;0.80;;;16.60;51.00;;;;;;4898768;29;20259;-69
2021/03/18 05:11:19;;;;;;;0.80;0.80;;;16.50;51.00;;;;;;4866554;29;20216;-69
2021/03/18 05:13:45;;;;;;;0.70;0.70;;;16.50;51.00;;;;;;4882970;29;20173;-69
2021/03/18 05:16:11;;;;;;;1.58;0.90;;;16.50;50.90;;;;;;4898460;29;20187;-69
2021/03/18 05:18:36;;;;;;;1.27;0.85;;;16.50;51.00;;;;;;4881938;29;20176;-69
2021/03/18 05:21:03;;;;;;;1.00;0.80;;;16.50;51.00;;;;;;4898406;29;20537;-68
2021/03/18 05:23:29;;;;;;;1.10;0.77;;;16.50;51.00;;;;;;4899468;29;20173;-69
2021/03/18 05:25:55;;;;;;;1.55;1.00;;;16.40;50.90;;;;;;4882126;29;20173;-68
2021/03/18 05:28:20;;;;;;;0.60;0.60;;;16.50;51.00;;;;;;4899273;29;20633;-68
2021/03/18 05:30:46;;;;;;;0.65;0.65;;;16.50;51.60;;;;;;4882597;29;20208;-69
2021/03/18 05:33:12;;;;;;;1.13;1.00;;;16.40;51.00;;;;;;4897607;29;20184;-70
2021/03/18 05:35:39;;;;;;;1.00;0.80;;;16.40;50.90;;;;;;4882163;29;20663;-69
2021/03/18 05:38:05;;;;;;;0.85;0.82;;;16.40;50.90;;;;;;4898231;29;20168;-69
2021/03/18 05:40:31;;;;;;;1.05;0.70;;;16.40;50.90;;;;;;4881650;29;20176;-68
2021/03/18 05:42:57;;;;;;;2.00;0.90;;;16.40;50.90;;;;;;4882335;29;20180;-68
2021/03/18 05:45:22;;;;;;;1.40;0.98;;;16.40;51.00;;;;;;4866260;29;20176;-68
2021/03/18 05:47:48;;;;;;;1.35;1.00;;;16.40;51.00;;;;;;4897419;29;20184;-68
2021/03/18 05:50:16;;;;;;;0.88;0.68;;;16.40;51.00;;;;;;4866696;29;20209;-68
2021/03/18 05:52:41;;;;;;;1.38;0.80;;;16.40;51.00;;;;;;4881389;29;20177;-68
2021/03/18 05:55:08;;;;;;;1.50;0.80;;;16.40;51.10;;;;;;4898795;29;20228;-68
2021/03/18 05:57:34;;;;;;;1.58;0.80;;;16.30;51.00;;;;;;4897622;29;20270;-69
2021/03/18 06:00:00;;;;;;;1.63;0.90;;;16.30;51.00;;;;;;4881386;29;20283;-69
2021/03/18 06:02:26;;;;;;;2.15;1.00;;;16.30;51.00;;;;;;4881810;29;20172;-69
2021/03/18 06:04:52;;;;;;;1.25;1.02;;;16.30;51.00;;;;;;4897469;29;20188;-68
2021/03/18 06:07:17;;;;;;;1.15;0.88;;;16.30;51.00;;;;;;4897165;29;20252;-69
2021/03/18 06:09:43;;;;;;;0.75;0.73;;;16.30;51.00;;;;;;4897229;29;20198;-68
2021/03/18 06:12:10;;;;;;;0.65;0.60;;;16.40;51.20;;;;;;4881994;29;20244;-69
2021/03/18 06:14:35;;;;;;;0.80;0.75;;;16.50;51.30;;;;;;4881076;29;20173;-69
2021/03/18 06:17:01;;;;;;;1.40;0.77;;;16.70;51.20;;;;;;4898457;29;20287;-68
2021/03/18 06:19:27;;;;;;;1.00;0.70;;;16.80;50.90;;;;;;4897218;29;20180;-69
2021/03/18 06:21:54;;;;;;;1.58;1.05;;;16.90;50.70;;;;;;4881104;29;20563;-68
2021/03/18 06:24:21;;;;;;;0.80;0.75;;;16.90;50.50;;;;;;4881370;29;20272;-69
2021/03/18 06:26:46;;;;;;;0.82;0.70;;;16.90;51.10;;;;;;4897384;29;20180;-68
2021/03/18 06:29:35;;;;;;;1.10;0.60;;;17.00;50.60;;;;;;4896581;29;20172;-68
2021/03/18 06:32:12;;;;;;;0.98;0.90;;;17.10;50.50;;;;;;4897145;29;20219;-69
2021/03/18 06:34:56;;;;;;;1.63;0.63;;;17.30;50.30;;;;;;4897947;29;20405;-71
2021/03/18 06:37:39;;;;;;;1.10;0.98;;;17.40;50.00;;;;;;4896879;29;20181;-70
2021/03/18 06:40:12;;;;;;;1.10;1.00;;;17.60;50.50;;;;;;4896967;29;20264;-67
2021/03/18 06:42:38;;;;;;;1.80;0.75;;;17.70;49.70;;;;;;4897438;29;20184;-68
2021/03/18 06:45:12;;;;;;;0.82;0.80;;;17.70;49.50;;;;;;4896883;29;20566;-67
2021/03/18 06:47:40;;;;;;;2.22;0.98;;;17.80;49.40;;;;;;4896880;29;20251;-69
2021/03/18 06:50:06;;;;;;;0.88;0.55;;;17.80;49.40;;;;;;4896418;29;20177;-68
2021/03/18 06:52:38;;;;;;;0.75;0.65;;;18.00;49.20;;;;;;4897583;29;20252;-69
2021/03/18 06:55:08;;;;;;;0.82;0.82;;;18.10;49.10;;;;;;4896632;29;20233;-68
2021/03/18 06:57:34;;;;;;;1.73;0.80;;;18.10;48.90;;;;;;4895934;29;20276;-67
2021/03/18 07:00:00;;;;;;;1.85;1.10;;;18.20;48.80;;;;;;4896755;29;20269;-71
2021/03/18 07:02:26;;;;;;;2.95;0.95;;;18.20;49.00;;;;;;4897489;29;20181;-65
2021/03/18 07:04:54;;;;;;;1.55;1.10;;;18.20;49.30;;;;;;4895883;29;20203;-69
2021/03/18 07:07:22;;;;;;;2.45;1.20;;;18.30;49.10;;;;;;4897567;29;20543;-69
2021/03/18 07:09:48;;;;;;;2.20;1.00;;;18.40;49.40;;;;;;4897946;29;20204;-69
2021/03/18 07:12:15;;;;;;;2.33;0.90;;;18.40;49.50;;;;;;4897148;29;20680;-71
2021/03/18 07:14:42;;;;;;;0.73;0.73;;;18.40;49.30;;;;;;4880756;29;20307;-65
2021/03/18 07:17:10;;;;;;;2.58;1.35;;;18.50;49.40;;;;;;4897035;29;20185;-69
2021/03/18 07:19:35;;;;;;;2.08;0.88;;;18.60;49.20;;;;;;4880610;29;20172;-67
2021/03/18 07:22:02;;;;;;;1.17;0.85;;;18.60;49.20;;;;;;4896117;29;20594;-67
2021/03/18 07:24:37;;;;;;;2.28;1.65;;;18.70;49.20;;;;;;4879938;29;20169;-68
2021/03/18 07:27:21;;;;;;;2.97;1.20;;;18.70;49.90;;;;;;4880729;29;20172;-68
2021/03/18 07:29:48;;;;;;;2.78;1.05;;;18.70;49.20;;;;;;4880743;29;20184;-67
2021/03/18 07:32:14;;;;;;;1.08;0.70;;;18.70;49.20;;;;;;4864570;29;20216;-70
2021/03/18 07:34:40;;;;;;;2.25;1.02;;;18.80;49.10;;;;;;4896152;29;20641;-68
2021/03/18 07:37:07;;;;;;;2.15;0.90;;;18.80;49.10;;;;;;4897663;29;20180;-68
2021/03/18 07:39:32;;;;;;;1.67;1.23;;;18.80;49.20;;;;;;4879826;29;20176;-68
2021/03/18 07:41:58;;;;;;;1.95;0.77;;;18.70;49.30;;;;;;4880615;29;20545;-69
2021/03/18 07:44:24;;;;;;;2.10;0.95;;;18.60;49.40;;;;;;4896973;29;20169;-64
2021/03/18 07:46:50;;;;;;;1.23;0.80;;;18.60;49.90;;;;;;4895764;29;20662;-63
2021/03/18 07:49:29;;;;;;;1.73;0.70;;;18.40;50.10;;;;;;4897380;29;20179;-65
2021/03/18 07:52:00;;;;;;;0.82;0.73;;;18.40;50.10;;;;;;4895957;29;20637;-63
2021/03/18 07:54:26;;;;;;;2.25;0.90;;;18.40;50.30;;;;;;4879686;29;20707;-70
2021/03/18 07:56:53;;;;;;;1.00;0.70;;;18.40;50.30;;;;;;4897244;29;20181;-64
2021/03/18 07:59:28;;;;;;;3.35;0.88;;;18.40;50.40;;;;;;4895302;29;20179;-65
2021/03/18 08:01:53;;;;;;;1.45;0.80;;;18.30;50.50;;;;;;4897079;29;20172;-67
2021/03/18 08:04:19;;;;;;;2.17;0.95;;;18.30;50.60;;;;;;4895541;29;20240;-70
2021/03/18 08:06:48;;;;;;;1.35;1.10;;;18.20;51.30;;;;;;4896828;29;20173;-63
2021/03/18 08:09:26;;;;;;;1.58;0.85;;;18.10;50.70;;;;;;4896165;29;20232;-71
2021/03/18 08:11:52;;;;;;;3.00;1.17;;;18.10;50.90;;;;;;4896781;29;20215;-69
2021/03/18 08:14:22;;;;;;;1.42;0.90;;;18.00;51.00;;;;;;4896598;29;20535;-72
2021/03/18 08:16:48;;;;;;;1.25;0.82;;;17.90;51.10;;;;;;4896050;29;20547;-66
2021/03/18 08:19:14;;;;;;;1.10;0.80;;;17.90;51.20;;;;;;4895845;29;20169;-68
2021/03/18 08:21:41;;;;;;;1.70;0.93;;;17.90;51.40;;;;;;4879477;29;20245;-72
2021/03/18 08:24:13;;;;;;;1.40;1.30;;;17.90;51.50;;;;;;4880069;29;20180;-72
2021/03/18 08:26:43;;;;;;;1.67;0.80;;;17.90;51.50;;;;;;4895755;29;20648;-70
2021/03/18 08:29:14;;;;;;;2.45;1.20;;;17.80;51.60;;;;;;4896339;29;20291;-69
2021/03/18 08:31:51;;;;;;;2.95;1.42;;;17.80;51.60;;;;;;4896811;29;20215;-70
2021/03/18 08:34:17;;;;;;;1.17;1.02;;;17.70;52.40;;;;;;4899266;29;20196;-71
2021/03/18 08:36:57;;;;;;;2.17;1.27;;;17.70;51.80;;;;;;4898476;29;20259;-72
2021/03/18 08:39:45;;;;;;;1.92;0.88;;;17.70;51.90;;;;;;4900009;29;20168;-69
2021/03/18 08:42:40;;;;;;;2.60;1.10;;;17.70;51.90;;;;;;4898519;29;20453;-68
2021/03/18 08:45:11;;;;;;;2.65;1.02;;;17.80;52.10;;;;;;4881633;29;20196;-68
2021/03/18 08:47:42;;;;;;;3.72;1.10;;;17.90;52.10;;;;;;4898847;29;20523;-69
2021/03/18 08:50:10;;;;;;;3.92;1.63;;;18.00;52.00;;;;;;4882753;29;20232;-70
2021/03/18 08:52:39;;;;;;;0.98;0.88;;;18.30;51.70;;;;;;4882891;29;20660;-69
2021/03/18 08:55:07;;;;;;;1.67;0.98;;;18.60;51.00;;;;;;4899774;29;20229;-69
2021/03/18 08:57:33;;;;;;;1.77;0.80;;;19.00;50.50;;;;;;4882454;29;20204;-69
2021/03/18 08:59:59;;;;;;;2.03;1.05;;;19.30;50.00;;;;;;4882464;29;20204;-71
2021/03/18 09:02:35;;;;;;;2.72;1.08;;;19.50;49.60;;;;;;4898515;29;20172;-69
2021/03/18 09:05:03;;;;;;;2.85;1.00;;;19.60;49.30;;;;;;4883511;29;20188;-68
2021/03/18 09:07:29;;;;;;;3.15;1.15;;;19.70;49.20;;;;;;4898559;29;20232;-71
2021/03/18 09:10:13;;;;;;;2.90;1.17;;;19.90;48.90;;;;;;4899100;29;20278;-70
2021/03/18 09:12:47;;;;;;;2.08;0.95;;;20.00;48.90;;;;;;4898398;29;20303;-70
2021/03/18 09:15:17;;;;;;;1.65;0.95;;;20.00;48.80;;;;;;4898478;29;20209;-72
2021/03/18 09:17:44;;;;;;;2.35;0.80;;;20.00;48.90;;;;;;4897586;29;20192;-72
2021/03/18 09:20:11;;;;;;;2.60;1.02;;;20.00;48.90;;;;;;4882871;29;20180;-66
2021/03/18 09:22:37;;;;;;;2.22;1.23;;;20.00;48.90;;;;;;4882440;29;20184;-70
2021/03/18 09:25:02;;;;;;;1.55;1.05;;;20.00;48.90;;;;;;4897619;29;20169;-67
2021/03/18 09:27:36;;;;;;;1.55;0.80;;;20.00;48.90;;;;;;4882449;29;20279;-72
2021/03/18 09:30:38;;;;;;;1.02;0.80;;;20.00;49.00;;;;;;4899225;29;20168;-69
2021/03/18 09:33:36;;;;;;;1.55;0.80;;;19.90;49.20;;;;;;4825585;29;20557;-72
2021/03/18 09:36:14;;;;;;;2.25;1.20;;;19.80;49.30;;;;;;4882143;29;20184;-73
2021/03/18 09:38:39;;;;;;;3.92;1.05;;;19.80;49.40;;;;;;4898495;29;20657;-70
2021/03/18 09:41:05;;;;;;;2.65;0.88;;;19.80;49.60;;;;;;4898082;29;20212;-74
2021/03/18 09:43:30;;;;;;;1.83;0.85;;;19.80;49.60;;;;;;4897405;29;20177;-73
2021/03/18 09:46:03;;;;;;;3.85;1.13;;;19.70;49.60;;;;;;4879850;29;20187;-63
2021/03/18 09:48:33;;;;;;;2.65;0.90;;;19.70;49.60;;;;;;4881947;29;20176;-76
2021/03/18 09:51:10;;;;;;;1.38;0.60;;;19.60;49.60;;;;;;4882344;29;20215;-75
2021/03/18 09:53:36;;;;;;;2.67;0.98;;;19.60;49.60;;;;;;4897167;29;20220;-72
2021/03/18 09:56:04;;;;;;;2.40;1.00;;;19.60;49.60;;;;;;4882224;29;20193;-72
2021/03/18 09:58:29;;;;;;;3.28;1.30;;;19.60;49.60;;;;;;4881938;29;20236;-68
2021/03/18 10:00:55;;;;;;;6.90;1.00;;;19.50;49.60;;;;;;4898825;29;20169;-74
2021/03/18 10:03:21;;;;;;;2.10;1.23;;;19.50;49.60;;;;;;4917523;29;20182;-68
2021/03/18 10:05:47;;;;;;;3.13;1.20;;;19.50;49.60;;;;;;4916373;29;20180;-73
2021/03/18 10:08:12;;;;;;;1.90;1.00;;;19.50;49.60;;;;;;4915882;29;20172;-71
2021/03/18 10:10:38;;;;;;;1.95;1.08;;;19.50;49.60;;;;;;4917244;29;20180;-68
2021/03/18 10:13:03;;;;;;;2.25;1.33;;;19.60;49.60;;;;;;4916908;29;20576;-65
2021/03/18 10:15:29;;;;;;;2.50;1.17;;;19.50;49.60;;;;;;4916090;29;20239;-71
2021/03/18 10:17:55;;;;;;;1.27;0.90;;;19.60;49.60;;;;;;4916010;29;20546;-66
2021/03/18 10:20:35;;;;;;;1.52;1.00;;;19.50;49.50;;;;;;4880961;29;20177;-64
2021/03/18 10:23:10;;;;;;;2.15;1.27;;;19.60;49.50;;;;;;4898379;29;20251;-61
2021/03/18 10:25:37;;;;;;;1.75;1.02;;;19.60;49.50;;;;;;4881430;29;20527;-62
2021/03/18 10:28:10;;;;;;;2.33;1.20;;;19.70;49.40;;;;;;4880886;29;20268;-61
2021/03/18 10:30:39;;;;;;;5.22;1.38;;;19.60;49.30;;;;;;4881458;29;20180;-63
2021/03/18 10:33:12;;;;;;;1.45;1.10;;;19.70;49.30;;;;;;4881381;29;20228;-63
2021/03/18 10:36:04;;;;;;;1.98;1.02;;;19.70;49.20;;;;;;4865553;29;20234;-71
2021/03/18 10:38:30;;;;;;;5.00;1.20;;;19.70;49.20;;;;;;4894504;29;20188;-67
2021/03/18 10:40:56;;;;;;;2.03;0.85;;;19.70;49.20;;;;;;4898006;29;20263;-65
2021/03/18 10:43:33;;;;;;;2.38;1.13;;;19.80;49.30;;;;;;4897129;29;20173;-65
2021/03/18 10:46:03;;;;;;;1.40;1.00;;;19.80;49.10;;;;;;4897844;29;20208;-64
2021/03/18 10:48:30;;;;;;;2.80;0.95;;;19.90;49.60;;;;;;4864926;29;20641;-69
2021/03/18 10:51:01;;;;;;;1.88;1.00;;;20.00;48.90;;;;;;4881280;29;20223;-65
2021/03/18 10:53:27;;;;;;;3.67;1.35;;;20.10;48.90;;;;;;4878266;29;20179;-64
2021/03/18 10:55:54;;;;;;;2.38;1.40;;;20.10;48.60;;;;;;4877885;29;20169;-63
2021/03/18 10:58:26;;;;;;;6.57;1.40;;;20.10;48.80;;;;;;4846858;29;20197;-68
2021/03/18 11:01:24;;;;;;;4.47;1.30;;;20.10;48.80;;;;;;4877777;29;20181;-64
2021/03/18 11:03:49;;;;;;;2.58;1.20;;;20.10;48.80;;;;;;4874358;29;20185;-65
2021/03/18 11:06:18;;;;;;;3.78;1.40;;;20.10;48.90;;;;;;4862448;29;20321;-64
2021/03/18 11:08:51;;;;;;;1.60;1.02;;;20.10;49.00;;;;;;4878943;29;20181;-64
2021/03/18 11:11:27;;;;;;;4.50;1.63;;;20.00;49.20;;;;;;4861681;29;20221;-64
2021/03/18 11:14:05;;;;;;;3.47;1.23;;;19.90;49.30;;;;;;4846802;29;20176;-64
2021/03/18 11:16:30;;;;;;;1.58;0.90;;;19.80;49.40;;;;;;4866965;29;20183;-63
2021/03/18 11:19:00;;;;;;;4.07;1.45;;;19.80;49.70;;;;;;4869911;29;20645;-63
2021/03/18 11:21:30;;;;;;;3.67;1.27;;;19.70;49.80;;;;;;4862582;29;20235;-66
2021/03/18 11:24:19;;;;;;;2.25;1.25;;;19.60;50.00;;;;;;4870556;29;20204;-64
2021/03/18 11:26:59;;;;;;;2.05;0.90;;;19.60;50.10;;;;;;4881701;29;20229;-63
2021/03/18 11:29:30;;;;;;;2.38;1.13;;;19.50;50.20;;;;;;4861592;29;20185;-64
2021/03/18 11:31:57;;;;;;;2.45;1.00;;;19.40;50.40;;;;;;4846359;29;20213;-67
2021/03/18 11:34:25;;;;;;;2.60;1.27;;;19.40;50.50;;;;;;4846751;29;20536;-66
2021/03/18 11:36:52;;;;;;;3.08;1.25;;;19.30;51.20;;;;;;4846740;29;20177;-66
2021/03/18 11:39:19;;;;;;;2.35;1.10;;;19.30;50.60;;;;;;4830738;29;20540;-65
2021/03/18 11:41:45;;;;;;;3.13;1.42;;;19.30;50.60;;;;;;4862308;29;20173;-72
2021/03/18 11:44:11;;;;;;;1.13;0.90;;;19.40;50.60;;;;;;4846529;29;20592;-65
2021/03/18 11:46:36;;;;;;;2.55;1.50;;;19.40;50.50;;;;;;4877706;29;20215;-64
2021/03/18 11:49:02;;;;;;;3.05;1.40;;;19.50;50.50;;;;;;4878603;29;20186;-63
2021/03/18 11:51:28;;;;;;;2.55;0.93;;;19.50;50.40;;;;;;4861218;29;20340;-62
2021/03/18 11:53:53;;;;;;;3.17;1.10;;;19.50;50.30;;;;;;4878275;29;20701;-63
2021/03/18 11:56:20;;;;;;;2.30;1.42;;;19.60;50.10;;;;;;4861770;29;20557;-63
2021/03/18 11:58:45;;;;;;;2.90;1.25;;;19.70;50.10;;;;;;4877868;29;20166;-70
2021/03/18 12:01:11;;;;;;;2.47;1.20;;;19.70;50.10;;;;;;4861783;29;20185;-65
2021/03/18 12:03:37;;;;;;;2.13;0.85;;;19.70;50.10;;;;;;4861661;29;20178;-64
2021/03/18 12:06:02;;;;;;;4.85;1.10;;;19.70;50.20;;;;;;4861138;29;20268;-63
2021/03/18 12:08:28;;;;;;;2.53;1.20;;;19.70;50.20;;;;;;4880076;29;20181;-62
2021/03/18 12:10:53;;;;;;;3.95;1.20;;;19.60;50.30;;;;;;4886832;29;20209;-63
2021/03/18 12:13:19;;;;;;;1.85;1.20;;;19.60;51.20;;;;;;4870077;29;20182;-63
2021/03/18 12:15:45;;;;;;;2.60;1.00;;;19.50;50.60;;;;;;4882947;29;20173;-62
2021/03/18 12:18:10;;;;;;;3.95;1.27;;;19.50;50.80;;;;;;4881753;29;20272;-63
2021/03/18 12:20:36;;;;;;;2.80;1.23;;;19.50;50.80;;;;;;4881074;29;20633;-65
2021/03/18 12:23:02;;;;;;;2.00;1.00;;;19.40;50.80;;;;;;4834163;29;20177;-63
2021/03/18 12:25:29;;;;;;;3.17;0.98;;;19.50;50.70;;;;;;4864917;29;20229;-62
2021/03/18 12:27:54;;;;;;;3.30;0.90;;;19.40;50.80;;;;;;4864823;29;20169;-62
2021/03/18 12:30:21;;;;;;;3.28;1.20;;;19.40;51.20;;;;;;4849924;29;20565;-63
2021/03/18 12:32:47;;;;;;;1.83;0.90;;;19.40;50.70;;;;;;4865186;29;20577;-65
2021/03/18 12:35:13;;;;;;;1.90;1.25;;;19.50;50.70;;;;;;4848898;29;20260;-64
2021/03/18 12:37:39;;;;;;;2.13;1.13;;;19.50;50.50;;;;;;4881445;29;20170;-65
2021/03/18 12:40:06;;;;;;;1.88;1.00;;;19.60;50.40;;;;;;4881432;29;20518;-67
2021/03/18 12:42:31;;;;;;;4.35;1.13;;;19.50;50.40;;;;;;4880006;29;20192;-64
2021/03/18 12:44:57;;;;;;;1.67;1.02;;;19.50;50.40;;;;;;4881471;29;20544;-64
2021/03/18 12:47:22;;;;;;;0.85;0.80;;;19.50;50.40;;;;;;4864425;29;20232;-63
2021/03/18 12:49:49;;;;;;;1.60;1.05;;;19.50;50.40;;;;;;4880758;29;20543;-64
2021/03/18 12:52:14;;;;;;;1.17;0.80;;;19.50;50.40;;;;;;4879749;29;20236;-63
2021/03/18 12:54:40;;;;;;;2.33;0.98;;;19.50;50.50;;;;;;4872574;29;20228;-64